Time;durP1;ratioP1;P1;durP2;ratioP2;P2;SDS_P1;SDS_P2;PMS_P1;PMS_P2;Temp;Humidity;BMP_temperature;BMP_pressure;BME280_temperature;BME280_humidity;BME280_pressure;Samples;Min_cycle;Max_cycle;Signal;HPM_P1;HPM_P2
2023/07/14 00:00:12;;;;;;;11.15;5.30;;;16.20;99.90;;;;;;5040365;28;20072;-49
2023/07/14 00:02:38;;;;;;;8.35;4.97;;;16.20;99.90;;;;;;5039301;28;20098;-51
2023/07/14 00:05:04;;;;;;;9.50;5.60;;;16.20;99.90;;;;;;5021685;28;20049;-49
2023/07/14 00:07:30;;;;;;;7.70;5.32;;;16.20;99.90;;;;;;5020601;28;20045;-48
2023/07/14 00:09:56;;;;;;;10.10;5.00;;;16.10;99.90;;;;;;5018852;28;20559;-49
2023/07/14 00:12:21;;;;;;;9.05;5.65;;;16.10;99.90;;;;;;5020345;28;20053;-50
2023/07/14 00:14:47;;;;;;;9.70;5.88;;;16.20;99.90;;;;;;5025806;28;20038;-49
2023/07/14 00:17:14;;;;;;;8.13;5.40;;;16.10;99.90;;;;;;5027279;28;20033;-49
2023/07/14 00:19:40;;;;;;;8.48;6.10;;;16.10;99.90;;;;;;5019909;28;20447;-48
2023/07/14 00:22:15;;;;;;;13.23;6.30;;;16.00;99.90;;;;;;5020013;28;20111;-53
2023/07/14 00:24:42;;;;;;;11.63;7.07;;;16.00;99.90;;;;;;5020490;28;20045;-50
2023/07/14 00:27:20;;;;;;;11.07;6.65;;;15.90;99.90;;;;;;5019958;28;20298;-52
2023/07/14 00:29:46;;;;;;;11.48;6.68;;;15.90;99.90;;;;;;5020152;28;20042;-50
2023/07/14 00:32:22;;;;;;;8.05;6.22;;;15.90;99.90;;;;;;5022455;28;20045;-51
2023/07/14 00:34:48;;;;;;;11.40;6.88;;;15.80;99.90;;;;;;5023597;28;20038;-48
2023/07/14 00:37:14;;;;;;;9.68;7.35;;;15.80;99.90;;;;;;5024173;28;20044;-51
2023/07/14 00:39:41;;;;;;;14.02;7.60;;;15.80;99.90;;;;;;5023121;28;20049;-52
2023/07/14 00:42:14;;;;;;;9.15;7.00;;;15.80;99.90;;;;;;5023535;28;20916;-49
2023/07/14 00:44:40;;;;;;;9.70;7.90;;;15.80;99.90;;;;;;5024057;28;20073;-49
2023/07/14 00:47:22;;;;;;;12.52;7.82;;;15.80;99.90;;;;;;5022691;28;20055;-50
2023/07/14 00:49:50;;;;;;;11.85;8.48;;;15.80;99.90;;;;;;5023525;28;20424;-50
2023/07/14 00:52:22;;;;;;;11.20;7.72;;;15.80;99.90;;;;;;5023009;28;20052;-53
2023/07/14 00:54:51;;;;;;;11.18;8.10;;;15.70;99.90;;;;;;5022646;28;20051;-51
2023/07/14 00:57:18;;;;;;;11.52;7.88;;;15.70;99.90;;;;;;5023440;28;20060;-53
2023/07/14 00:59:44;;;;;;;13.60;7.93;;;15.60;99.90;;;;;;5023453;28;20061;-47
2023/07/14 01:02:22;;;;;;;11.40;8.27;;;15.50;99.90;;;;;;5021577;28;20037;-48
2023/07/14 01:04:58;;;;;;;13.35;8.27;;;15.60;99.90;;;;;;5022791;28;20456;-51
2023/07/14 01:07:29;;;;;;;9.13;8.13;;;15.50;99.90;;;;;;5022318;28;20062;-49
2023/07/14 01:09:57;;;;;;;10.85;7.95;;;15.60;99.90;;;;;;5081162;23;20269;-53
2023/07/14 01:12:24;;;;;;;12.77;8.75;;;15.50;99.90;;;;;;5005798;28;20049;-52
2023/07/14 01:14:52;;;;;;;9.60;8.07;;;15.50;99.90;;;;;;5006256;28;20065;-52
2023/07/14 01:17:18;;;;;;;14.82;9.43;;;15.50;99.90;;;;;;5019196;28;20049;-51
2023/07/14 01:20:11;;;;;;;12.80;8.75;;;15.40;99.90;;;;;;5026254;28;20491;-54
2023/07/14 01:22:50;;;;;;;9.82;8.35;;;15.40;99.90;;;;;;5025814;28;20128;-52
2023/07/14 01:25:37;;;;;;;12.98;9.20;;;15.30;99.90;;;;;;5025859;28;20479;-54
2023/07/14 01:28:09;;;;;;;13.02;8.85;;;15.30;99.90;;;;;;5025312;28;20091;-52
2023/07/14 01:30:36;;;;;;;13.07;10.25;;;15.30;99.90;;;;;;5024114;28;20076;-51
2023/07/14 01:33:02;;;;;;;12.27;10.88;;;15.20;99.90;;;;;;5004545;28;20053;-51
2023/07/14 01:35:32;;;;;;;13.27;10.95;;;15.10;99.90;;;;;;5006443;28;20034;-51
2023/07/14 01:37:58;;;;;;;14.27;10.98;;;15.20;99.90;;;;;;4997407;28;20472;-51
2023/07/14 01:40:24;;;;;;;13.45;11.38;;;15.10;99.90;;;;;;5005003;28;20084;-52
2023/07/14 01:42:56;;;;;;;15.80;11.50;;;15.10;99.90;;;;;;5004538;28;20065;-51
2023/07/14 01:45:24;;;;;;;15.40;11.40;;;15.00;99.90;;;;;;5005645;28;20131;-53
2023/07/14 01:47:54;;;;;;;14.50;11.30;;;15.00;99.90;;;;;;4986996;28;20137;-54
2023/07/14 01:50:48;;;;;;;14.70;12.32;;;14.90;99.90;;;;;;5004955;28;20049;-54
2023/07/14 01:53:23;;;;;;;14.73;12.40;;;14.90;99.90;;;;;;4995900;28;20145;-53
2023/07/14 01:55:51;;;;;;;16.25;12.60;;;14.90;99.90;;;;;;4972478;28;20447;-52
2023/07/14 01:58:22;;;;;;;18.63;14.13;;;14.90;99.90;;;;;;5006059;28;20038;-50
2023/07/14 02:00:51;;;;;;;16.45;13.50;;;14.90;99.90;;;;;;5004464;28;20729;-50
2023/07/14 02:03:43;;;;;;;16.70;13.85;;;14.90;99.90;;;;;;5005871;28;20042;-51
2023/07/14 02:06:09;;;;;;;19.38;14.00;;;14.90;99.90;;;;;;5018012;28;20056;-51
2023/07/14 02:08:35;;;;;;;20.23;14.38;;;14.90;99.90;;;;;;5025096;28;20052;-51
2023/07/14 02:11:01;;;;;;;17.85;14.40;;;14.80;99.90;;;;;;5024494;28;20118;-50
2023/07/14 02:13:27;;;;;;;17.90;14.02;;;14.80;99.90;;;;;;5024342;28;20045;-50
2023/07/14 02:15:54;;;;;;;18.80;14.90;;;14.80;99.90;;;;;;5024210;28;20630;-51
2023/07/14 02:18:25;;;;;;;21.30;14.98;;;14.80;99.90;;;;;;5016959;28;20380;-51
2023/07/14 02:20:52;;;;;;;19.17;15.02;;;14.80;99.90;;;;;;5012823;28;20069;-55
2023/07/14 02:23:21;;;;;;;18.50;14.95;;;14.70;99.90;;;;;;5004674;28;20076;-49
2023/07/14 02:25:53;;;;;;;20.05;14.73;;;14.70;99.90;;;;;;5004448;28;20128;-53
2023/07/14 02:28:19;;;;;;;19.50;16.13;;;14.70;99.90;;;;;;5015528;28;20047;-51
2023/07/14 02:30:50;;;;;;;19.55;15.70;;;14.70;99.90;;;;;;5022769;28;20137;-48
2023/07/14 02:33:22;;;;;;;17.65;15.18;;;14.70;99.90;;;;;;5023727;28;20041;-49
2023/07/14 02:35:53;;;;;;;18.48;14.70;;;14.70;99.90;;;;;;5024311;28;20358;-53
2023/07/14 02:38:19;;;;;;;17.15;14.65;;;14.70;99.90;;;;;;5015023;28;20100;-51
2023/07/14 02:40:50;;;;;;;24.65;16.55;;;14.60;99.90;;;;;;5005138;28;20523;-53
2023/07/14 02:43:18;;;;;;;19.63;15.90;;;14.60;99.90;;;;;;5003727;28;20119;-51
2023/07/14 02:45:57;;;;;;;21.30;16.13;;;14.60;99.90;;;;;;5017294;28;20049;-51
2023/07/14 02:48:38;;;;;;;25.92;17.15;;;14.60;99.90;;;;;;5024624;28;20049;-52
2023/07/14 02:51:04;;;;;;;19.30;16.10;;;14.50;99.90;;;;;;5023302;28;20080;-52
2023/07/14 02:53:29;;;;;;;25.30;17.55;;;14.50;99.90;;;;;;5023567;28;20711;-52
2023/07/14 02:55:55;;;;;;;20.55;16.45;;;14.50;99.90;;;;;;5023996;28;20084;-52
2023/07/14 02:58:21;;;;;;;25.17;16.90;;;14.50;99.90;;;;;;5009250;28;20050;-50
2023/07/14 03:00:47;;;;;;;21.98;16.63;;;14.50;99.90;;;;;;5004526;28;20089;-53
2023/07/14 03:03:13;;;;;;;21.48;17.70;;;14.40;99.90;;;;;;5025003;28;20037;-51
2023/07/14 03:05:38;;;;;;;24.15;16.92;;;14.40;99.90;;;;;;5023431;28;20045;-48
2023/07/14 03:08:15;;;;;;;20.95;16.98;;;14.50;99.90;;;;;;5023946;28;20125;-49
2023/07/14 03:10:43;;;;;;;19.95;17.23;;;14.40;99.90;;;;;;5023246;28;20049;-50
2023/07/14 03:13:09;;;;;;;21.38;17.40;;;14.50;99.90;;;;;;5022955;28;20065;-52
2023/07/14 03:15:34;;;;;;;24.08;17.40;;;14.40;99.90;;;;;;5023249;28;20045;-53
2023/07/14 03:18:00;;;;;;;20.67;17.42;;;14.40;99.90;;;;;;5024168;28;20041;-49
2023/07/14 03:20:26;;;;;;;19.55;17.52;;;14.40;99.90;;;;;;5024378;28;20498;-48
2023/07/14 03:22:52;;;;;;;21.05;16.83;;;14.40;99.90;;;;;;5005018;28;20041;-48
2023/07/14 03:25:18;;;;;;;22.60;17.02;;;14.50;99.90;;;;;;5023562;28;20809;-51
2023/07/14 03:27:45;;;;;;;20.42;17.65;;;14.40;99.90;;;;;;5022061;28;20111;-51
2023/07/14 03:30:12;;;;;;;22.02;17.55;;;14.30;99.90;;;;;;5023419;28;20170;-51
2023/07/14 03:32:38;;;;;;;20.98;16.50;;;14.30;99.90;;;;;;5022585;28;20053;-51
2023/07/14 03:35:04;;;;;;;19.42;16.02;;;14.20;99.90;;;;;;5024067;28;20096;-51
2023/07/14 03:37:30;;;;;;;19.08;16.70;;;14.20;99.90;;;;;;5020153;28;20081;-50
2023/07/14 03:39:56;;;;;;;21.30;16.92;;;14.20;99.90;;;;;;5004307;28;20500;-52
2023/07/14 03:42:22;;;;;;;18.80;16.80;;;14.20;99.90;;;;;;5004152;28;20204;-49
2023/07/14 03:44:48;;;;;;;21.17;16.38;;;14.20;99.90;;;;;;5001975;28;20050;-48
2023/07/14 03:47:14;;;;;;;20.02;16.30;;;14.20;99.90;;;;;;5002469;28;20046;-52
2023/07/14 03:49:39;;;;;;;19.42;16.10;;;14.20;99.90;;;;;;5003540;28;20385;-52
2023/07/14 03:52:05;;;;;;;21.17;16.20;;;14.20;99.90;;;;;;5003685;28;20129;-53
2023/07/14 03:54:32;;;;;;;21.02;16.10;;;14.20;99.90;;;;;;5003844;28;20038;-52
2023/07/14 03:57:01;;;;;;;18.73;15.90;;;14.20;99.90;;;;;;5002426;28;20042;-48
2023/07/14 03:59:27;;;;;;;22.27;15.63;;;14.20;99.90;;;;;;5003437;28;20088;-50
2023/07/14 04:01:54;;;;;;;17.67;15.73;;;14.20;99.90;;;;;;5003459;28;20484;-52
2023/07/14 04:04:20;;;;;;;19.48;15.23;;;14.20;99.90;;;;;;5002791;28;20125;-49
2023/07/14 04:06:46;;;;;;;20.52;14.60;;;14.20;99.90;;;;;;5007059;28;20042;-49
2023/07/14 04:09:12;;;;;;;18.95;13.98;;;14.30;99.90;;;;;;5007197;28;20053;-53
2023/07/14 04:11:38;;;;;;;22.27;14.38;;;14.40;99.90;;;;;;4987781;28;20042;-52
2023/07/14 04:14:05;;;;;;;17.98;13.57;;;14.40;99.90;;;;;;5008145;28;20042;-50
2023/07/14 04:16:31;;;;;;;18.58;14.60;;;14.40;99.90;;;;;;5006009;28;20046;-50
2023/07/14 04:18:57;;;;;;;18.25;14.00;;;14.40;99.90;;;;;;5007754;28;20377;-50
2023/07/14 04:21:27;;;;;;;18.55;13.68;;;14.40;99.90;;;;;;5007060;28;20096;-47
2023/07/14 04:23:54;;;;;;;16.52;13.52;;;14.40;99.90;;;;;;5007999;28;20116;-49
2023/07/14 04:26:20;;;;;;;17.45;12.82;;;14.40;99.90;;;;;;5007133;28;20554;-49
2023/07/14 04:28:46;;;;;;;17.30;13.30;;;14.50;99.90;;;;;;5007261;28;20046;-50
2023/07/14 04:31:11;;;;;;;16.60;12.35;;;14.40;99.90;;;;;;5006718;28;20128;-49
2023/07/14 04:33:37;;;;;;;17.83;13.25;;;14.40;99.90;;;;;;5006273;28;20798;-53
2023/07/14 04:36:04;;;;;;;15.18;12.43;;;14.50;99.90;;;;;;5007212;28;20038;-52
2023/07/14 04:38:30;;;;;;;14.68;12.73;;;14.50;99.90;;;;;;5006714;28;20096;-52
2023/07/14 04:40:56;;;;;;;18.80;12.50;;;14.50;99.90;;;;;;5007225;28;20045;-51
2023/07/14 04:43:22;;;;;;;15.88;11.50;;;14.50;99.90;;;;;;5007127;28;20099;-53
2023/07/14 04:45:50;;;;;;;15.32;11.60;;;14.60;99.90;;;;;;5005485;28;20124;-50
2023/07/14 04:48:18;;;;;;;14.80;11.73;;;14.60;99.90;;;;;;5007695;28;20100;-51
2023/07/14 04:50:47;;;;;;;15.35;11.25;;;14.60;99.90;;;;;;5007427;28;20449;-52
2023/07/14 04:53:15;;;;;;;14.68;10.98;;;14.60;99.90;;;;;;5005787;28;20046;-53
2023/07/14 04:55:43;;;;;;;14.93;10.52;;;14.80;99.90;;;;;;4990156;28;20077;-54
2023/07/14 04:58:10;;;;;;;14.30;10.48;;;15.00;99.90;;;;;;5007216;28;20073;-50
2023/07/14 05:00:38;;;;;;;16.98;10.07;;;15.30;99.90;;;;;;5005664;28;20133;-51
2023/07/14 05:03:04;;;;;;;15.00;9.48;;;15.50;99.90;;;;;;5005546;28;20045;-49
2023/07/14 05:05:30;;;;;;;12.07;8.05;;;15.60;99.90;;;;;;5006599;28;20052;-51
2023/07/14 05:07:56;;;;;;;11.98;8.85;;;15.80;99.90;;;;;;5007362;28;20112;-49
2023/07/14 05:10:24;;;;;;;14.00;9.05;;;15.80;99.90;;;;;;5005409;28;20053;-51
2023/07/14 05:12:54;;;;;;;13.77;8.57;;;15.90;99.90;;;;;;5025970;28;20132;-52
2023/07/14 05:15:21;;;;;;;13.52;8.13;;;16.00;99.90;;;;;;5025120;28;20048;-49
2023/07/14 05:17:48;;;;;;;13.68;8.50;;;16.00;99.90;;;;;;5025889;28;20042;-53
2023/07/14 05:20:16;;;;;;;11.00;8.07;;;16.10;99.90;;;;;;5026295;28;20203;-51
2023/07/14 05:22:44;;;;;;;12.40;8.70;;;16.10;99.90;;;;;;5025791;28;20587;-51
2023/07/14 05:25:11;;;;;;;13.05;7.85;;;16.30;99.90;;;;;;5024988;28;20041;-53
2023/07/14 05:27:38;;;;;;;13.85;8.75;;;16.30;99.90;;;;;;5025844;28;20033;-48
2023/07/14 05:30:05;;;;;;;11.43;8.40;;;16.50;99.90;;;;;;5025730;28;20396;-53
2023/07/14 05:32:31;;;;;;;11.43;8.38;;;16.60;99.90;;;;;;5025459;28;20040;-50
2023/07/14 05:34:58;;;;;;;12.25;7.40;;;16.80;99.90;;;;;;5024145;28;20038;-49
2023/07/14 05:37:24;;;;;;;13.23;7.70;;;16.80;99.90;;;;;;5007055;28;20646;-52
2023/07/14 05:39:50;;;;;;;10.25;7.45;;;16.90;99.90;;;;;;5007371;28;20041;-49
2023/07/14 05:42:16;;;;;;;12.77;7.43;;;16.90;99.90;;;;;;5005906;28;20049;-51
2023/07/14 05:44:42;;;;;;;9.13;7.28;;;17.10;99.90;;;;;;5023630;28;20128;-49
2023/07/14 05:47:08;;;;;;;10.38;7.40;;;17.20;99.90;;;;;;5005602;28;20129;-52
2023/07/14 05:49:35;;;;;;;10.80;7.70;;;17.30;99.90;;;;;;5023300;28;20124;-52
2023/07/14 05:52:01;;;;;;;11.48;7.28;;;17.40;99.90;;;;;;5023740;28;20445;-49
2023/07/14 05:54:27;;;;;;;12.63;7.95;;;17.50;99.90;;;;;;5024596;28;20695;-49
2023/07/14 05:56:53;;;;;;;12.10;7.38;;;17.60;99.90;;;;;;5024774;28;20089;-48
2023/07/14 05:59:19;;;;;;;14.38;7.30;;;17.70;99.90;;;;;;5003549;28;20100;-49
2023/07/14 06:01:46;;;;;;;9.77;6.72;;;17.80;99.90;;;;;;5023868;28;20076;-48
2023/07/14 06:04:12;;;;;;;10.55;6.95;;;18.00;99.90;;;;;;5024849;28;20509;-49
2023/07/14 06:06:38;;;;;;;12.23;6.78;;;18.30;99.90;;;;;;5024982;28;20045;-52
2023/07/14 06:09:05;;;;;;;9.70;6.63;;;18.40;99.90;;;;;;5025056;28;20066;-51
2023/07/14 06:11:31;;;;;;;10.70;6.57;;;18.60;99.90;;;;;;5007018;28;20478;-51
2023/07/14 06:13:57;;;;;;;9.70;6.97;;;18.70;99.90;;;;;;5025902;28;20061;-50
2023/07/14 06:16:23;;;;;;;9.70;6.60;;;18.60;99.90;;;;;;5024069;28;20565;-47
2023/07/14 06:18:50;;;;;;;10.63;6.60;;;18.60;99.90;;;;;;5025294;28;20121;-50
2023/07/14 06:21:16;;;;;;;10.65;6.40;;;18.50;99.90;;;;;;5021105;28;20049;-49
2023/07/14 06:23:42;;;;;;;13.50;7.10;;;18.50;99.90;;;;;;5012740;28;20045;-53
2023/07/14 06:26:08;;;;;;;10.25;6.70;;;18.60;99.90;;;;;;5004677;28;20045;-52
2023/07/14 06:28:34;;;;;;;9.75;6.95;;;18.50;99.90;;;;;;5004688;28;20068;-52
2023/07/14 06:31:04;;;;;;;10.98;6.68;;;18.50;99.90;;;;;;5004259;28;20046;-52
2023/07/14 06:33:30;;;;;;;12.73;6.85;;;18.60;99.90;;;;;;5003761;28;20034;-53
2023/07/14 06:35:57;;;;;;;15.60;7.22;;;18.40;99.90;;;;;;5005373;28;20050;-53
2023/07/14 06:38:23;;;;;;;10.32;6.97;;;18.60;99.90;;;;;;5004710;28;20045;-52
2023/07/14 06:40:56;;;;;;;13.15;7.53;;;18.60;99.90;;;;;;5010392;28;20046;-50
2023/07/14 06:43:22;;;;;;;11.98;7.50;;;18.60;99.90;;;;;;5011282;28;20049;-52
2023/07/14 06:45:48;;;;;;;14.27;7.07;;;18.50;99.90;;;;;;5010893;28;20033;-49
2023/07/14 06:48:14;;;;;;;11.60;7.68;;;18.30;99.90;;;;;;5009089;28;20042;-51
2023/07/14 06:50:40;;;;;;;13.63;7.60;;;18.00;99.90;;;;;;5012136;28;20044;-48
2023/07/14 06:53:06;;;;;;;11.73;7.38;;;17.90;99.90;;;;;;4993531;28;20072;-49
2023/07/14 06:55:31;;;;;;;11.50;6.97;;;17.80;99.90;;;;;;5008927;28;20042;-50
2023/07/14 06:57:57;;;;;;;10.43;6.88;;;17.80;99.90;;;;;;5006527;28;20362;-52
2023/07/14 07:00:24;;;;;;;9.73;6.95;;;17.90;99.90;;;;;;5001559;28;20132;-52
2023/07/14 07:02:50;;;;;;;11.20;7.05;;;17.90;99.90;;;;;;5020868;28;20060;-51
2023/07/14 07:05:16;;;;;;;13.85;7.55;;;17.80;99.90;;;;;;5020825;28;20396;-49
2023/07/14 07:07:43;;;;;;;11.25;7.50;;;17.70;99.90;;;;;;5020587;28;20049;-52
2023/07/14 07:10:09;;;;;;;10.57;7.00;;;17.70;99.90;;;;;;5018684;28;20065;-51
2023/07/14 07:12:35;;;;;;;11.10;7.45;;;17.70;99.90;;;;;;5009584;28;20057;-47
2023/07/14 07:15:02;;;;;;;11.65;7.30;;;17.60;99.90;;;;;;5008078;28;20048;-49
2023/07/14 07:17:27;;;;;;;11.15;7.40;;;17.60;99.90;;;;;;5012350;28;20065;-49
2023/07/14 07:19:53;;;;;;;13.93;7.68;;;17.70;99.90;;;;;;5010278;28;20069;-49
2023/07/14 07:22:19;;;;;;;13.45;7.43;;;17.70;99.90;;;;;;4990667;28;20141;-53
2023/07/14 07:24:44;;;;;;;10.07;6.93;;;17.70;99.90;;;;;;4999866;28;20356;-48
2023/07/14 07:27:10;;;;;;;10.45;7.18;;;17.80;99.90;;;;;;5000836;28;20044;-48
2023/07/14 07:29:39;;;;;;;9.30;6.55;;;17.80;99.90;;;;;;5001127;28;20058;-48
2023/07/14 07:32:05;;;;;;;15.38;7.80;;;17.90;99.90;;;;;;4999498;28;20042;-48
2023/07/14 07:34:30;;;;;;;11.35;7.38;;;17.90;99.90;;;;;;4982804;28;20183;-49
2023/07/14 07:36:56;;;;;;;12.77;7.10;;;18.00;99.90;;;;;;5000277;28;20041;-50
2023/07/14 07:39:22;;;;;;;11.60;7.50;;;18.20;99.90;;;;;;5000011;28;20073;-52
2023/07/14 07:41:47;;;;;;;11.68;7.22;;;18.80;99.90;;;;;;5001056;28;20049;-51
2023/07/14 07:44:13;;;;;;;12.25;6.65;;;19.30;99.90;;;;;;5000434;28;20121;-50
2023/07/14 07:46:39;;;;;;;8.75;6.18;;;19.70;99.90;;;;;;5000445;28;20034;-49
2023/07/14 07:49:04;;;;;;;10.20;5.47;;;19.90;99.90;;;;;;4999791;28;20447;-50
2023/07/14 07:51:30;;;;;;;9.30;5.78;;;20.00;99.90;;;;;;5000505;28;20088;-50
2023/07/14 07:53:56;;;;;;;11.30;6.63;;;20.20;99.90;;;;;;4999166;28;20260;-50
2023/07/14 07:56:22;;;;;;;11.35;6.00;;;20.20;99.90;;;;;;5000347;28;20048;-52
2023/07/14 07:58:48;;;;;;;10.18;5.03;;;20.20;99.90;;;;;;4982926;28;20078;-52
2023/07/14 08:01:22;;;;;;;10.75;4.80;;;20.20;99.90;;;;;;4999657;28;20050;-51
2023/07/14 08:03:49;;;;;;;9.40;4.60;;;20.20;99.90;;;;;;5000957;28;20097;-50
2023/07/14 08:06:14;;;;;;;11.45;4.78;;;20.20;99.90;;;;;;5017020;28;20041;-50
2023/07/14 08:08:40;;;;;;;10.02;4.60;;;20.30;99.90;;;;;;5002317;28;20441;-50
2023/07/14 08:11:10;;;;;;;8.02;3.90;;;20.60;99.90;;;;;;5028839;28;20495;-50
2023/07/14 08:13:36;;;;;;;7.95;3.90;;;20.70;99.90;;;;;;5027902;28;20050;-49
2023/07/14 08:16:02;;;;;;;6.63;3.65;;;20.80;99.90;;;;;;5018726;28;20057;-48
2023/07/14 08:18:29;;;;;;;9.35;3.40;;;20.90;99.90;;;;;;5019172;28;20265;-52
2023/07/14 08:20:55;;;;;;;8.60;3.85;;;21.00;99.90;;;;;;5019865;28;20045;-49
2023/07/14 08:23:23;;;;;;;6.63;3.38;;;21.00;99.90;;;;;;5028204;28;20460;-50
2023/07/14 08:25:58;;;;;;;7.15;2.85;;;21.00;99.90;;;;;;5039294;28;20053;-51
2023/07/14 08:28:24;;;;;;;5.45;2.90;;;21.10;99.90;;;;;;5039542;28;20056;-52
2023/07/14 08:30:52;;;;;;;5.13;2.65;;;21.30;99.90;;;;;;5032412;28;20049;-50
2023/07/14 08:33:19;;;;;;;5.55;2.90;;;21.40;99.90;;;;;;5015084;28;20446;-52
2023/07/14 08:35:48;;;;;;;6.45;2.90;;;21.40;99.90;;;;;;5019464;28;20046;-52
2023/07/14 08:38:14;;;;;;;6.03;2.95;;;21.50;99.90;;;;;;4999796;28;20048;-50
2023/07/14 08:40:51;;;;;;;4.65;2.75;;;21.60;99.90;;;;;;5021336;28;20041;-58
2023/07/14 08:43:34;;;;;;;8.20;2.90;;;21.70;99.20;;;;;;5020057;28;20053;-56
2023/07/14 08:46:08;;;;;;;5.45;2.42;;;21.70;99.60;;;;;;5019360;28;20053;-59
2023/07/14 08:48:38;;;;;;;4.97;2.40;;;21.70;98.40;;;;;;5019734;28;20064;-56
2023/07/14 08:51:34;;;;;;;7.38;2.70;;;21.60;97.70;;;;;;5020273;28;20053;-57
2023/07/14 08:54:04;;;;;;;9.30;2.90;;;21.50;98.30;;;;;;5016893;28;20049;-58
2023/07/14 08:56:34;;;;;;;6.82;2.95;;;21.30;97.90;;;;;;5023259;28;20071;-55
2023/07/14 08:59:00;;;;;;;4.50;2.70;;;21.30;98.10;;;;;;5022508;28;20227;-57
2023/07/14 09:01:47;;;;;;;5.30;2.60;;;21.10;98.10;;;;;;5022132;28;20045;-57
2023/07/14 09:04:22;;;;;;;4.63;2.50;;;21.00;98.10;;;;;;5023428;28;20124;-56
2023/07/14 09:06:48;;;;;;;5.18;2.50;;;20.80;97.80;;;;;;5022400;28;20121;-58
2023/07/14 09:09:19;;;;;;;4.53;2.05;;;20.90;97.10;;;;;;5022562;28;20503;-57
2023/07/14 09:12:04;;;;;;;4.57;2.65;;;20.80;96.70;;;;;;5023090;28;20512;-57
2023/07/14 09:14:35;;;;;;;;;;;20.60;97.00;;;;;;5022119;28;20072;-57
2023/07/14 09:17:28;;;;;;;7.75;3.10;;;20.70;97.50;;;;;;5023046;28;19921;-57
2023/07/14 09:19:54;;;;;;;4.68;2.97;;;20.90;97.80;;;;;;5005096;28;20052;-57
2023/07/14 09:23:02;;;;;;;4.72;2.63;;;21.30;97.40;;;;;;5022329;28;20342;-57
2023/07/14 09:25:37;;;;;;;8.40;2.60;;;21.50;97.20;;;;;;5022374;28;20084;-57
2023/07/14 09:28:09;;;;;;;4.55;2.72;;;21.40;97.00;;;;;;5022998;28;20053;-49
2023/07/14 09:30:36;;;;;;;4.93;2.97;;;21.30;97.10;;;;;;5021363;28;20115;-49
2023/07/14 09:33:03;;;;;;;5.15;2.97;;;21.00;97.80;;;;;;5022298;28;20057;-49
2023/07/14 09:35:31;;;;;;;6.63;3.47;;;21.00;98.20;;;;;;5022204;28;20076;-50
2023/07/14 09:38:13;;;;;;;6.85;3.40;;;21.10;98.10;;;;;;5004367;28;20650;-50
2023/07/14 09:40:42;;;;;;;6.53;3.92;;;20.80;98.60;;;;;;5022509;28;20037;-49
2023/07/14 09:43:10;;;;;;;8.63;3.90;;;20.70;98.80;;;;;;5021782;28;20045;-50
2023/07/14 09:45:38;;;;;;;6.05;3.22;;;20.60;99.00;;;;;;5021856;28;20435;-50
2023/07/14 09:48:30;;;;;;;5.88;3.47;;;20.70;99.10;;;;;;5022340;28;20242;-50
2023/07/14 09:50:55;;;;;;;4.68;3.25;;;21.10;98.80;;;;;;5021983;28;20041;-52
2023/07/14 09:53:21;;;;;;;6.07;3.30;;;21.50;97.80;;;;;;5021809;28;20052;-51
2023/07/14 09:55:53;;;;;;;5.53;3.42;;;21.80;96.80;;;;;;5021461;28;20047;-51
2023/07/14 09:58:25;;;;;;;8.02;3.40;;;21.90;97.10;;;;;;5022127;28;20049;-50
2023/07/14 10:00:54;;;;;;;5.55;3.20;;;22.10;96.80;;;;;;5021288;28;20232;-52
2023/07/14 10:03:20;;;;;;;9.68;3.47;;;22.40;96.10;;;;;;5020586;28;20041;-48
2023/07/14 10:05:57;;;;;;;6.18;3.40;;;22.30;95.80;;;;;;5022065;28;20037;-50
2023/07/14 10:08:44;;;;;;;5.63;3.15;;;22.10;96.20;;;;;;5021950;28;20042;-48
2023/07/14 10:11:25;;;;;;;5.15;3.10;;;21.90;95.80;;;;;;5021259;28;20053;-51
2023/07/14 10:14:00;;;;;;;5.55;2.85;;;21.80;95.90;;;;;;5021773;28;20100;-52
2023/07/14 10:16:29;;;;;;;11.63;3.50;;;21.50;96.10;;;;;;5020732;28;20109;-49
2023/07/14 10:18:57;;;;;;;5.03;3.28;;;21.50;96.20;;;;;;5021753;28;20042;-55
2023/07/14 10:21:34;;;;;;;5.35;2.88;;;21.40;96.30;;;;;;5021146;28;20435;-48
2023/07/14 10:24:06;;;;;;;6.05;3.25;;;21.40;96.50;;;;;;5022008;28;20133;-48
2023/07/14 10:26:48;;;;;;;5.85;3.17;;;21.40;96.60;;;;;;5021467;28;20137;-46
2023/07/14 10:29:16;;;;;;;5.30;2.65;;;21.50;96.60;;;;;;5022085;28;20065;-48
2023/07/14 10:31:42;;;;;;;5.30;2.50;;;21.50;96.70;;;;;;5021788;28;20050;-50
2023/07/14 10:34:17;;;;;;;6.05;2.90;;;21.60;95.60;;;;;;5021122;28;20396;-49
2023/07/14 10:36:43;;;;;;;4.72;2.78;;;21.60;96.30;;;;;;5021522;28;20085;-49
2023/07/14 10:39:37;;;;;;;4.40;2.55;;;21.70;96.70;;;;;;5020895;28;20099;-51
2023/07/14 10:42:08;;;;;;;6.80;3.42;;;22.00;96.30;;;;;;5021557;28;20434;-49
2023/07/14 10:44:38;;;;;;;5.57;2.45;;;22.30;95.10;;;;;;5020676;28;20038;-49
2023/07/14 10:47:18;;;;;;;5.85;3.10;;;22.60;95.20;;;;;;5020378;28;20637;-49
2023/07/14 10:49:51;;;;;;;6.70;2.95;;;22.60;94.70;;;;;;5021587;28;20091;-50
2023/07/14 10:52:32;;;;;;;6.25;3.10;;;22.50;94.90;;;;;;5020922;28;20494;-52
2023/07/14 10:55:03;;;;;;;6.75;3.15;;;22.40;94.90;;;;;;5002231;28;20155;-51
2023/07/14 10:57:54;;;;;;;7.75;2.83;;;22.40;95.30;;;;;;5013142;28;20451;-49
2023/07/14 11:00:47;;;;;;;5.15;2.75;;;22.40;95.10;;;;;;5017681;28;20056;-49
2023/07/14 11:03:26;;;;;;;4.40;2.63;;;22.70;94.10;;;;;;5019774;28;20068;-49
2023/07/14 11:06:04;;;;;;;6.72;3.05;;;23.00;93.90;;;;;;4990546;28;20404;-49
2023/07/14 11:08:32;;;;;;;5.40;3.20;;;22.80;94.50;;;;;;5018278;28;20029;-51
2023/07/14 11:11:12;;;;;;;4.20;2.70;;;22.60;94.50;;;;;;5017812;28;20053;-50
2023/07/14 11:14:11;;;;;;;4.85;2.95;;;22.40;94.80;;;;;;5017886;28;20064;-50
2023/07/14 11:16:57;;;;;;;4.45;2.90;;;22.10;94.70;;;;;;5018216;28;20416;-49
2023/07/14 11:19:40;;;;;;;7.50;3.15;;;22.10;94.80;;;;;;5018965;28;20080;-49
2023/07/14 11:22:16;;;;;;;7.13;2.80;;;22.40;94.90;;;;;;4997304;28;20197;-51
2023/07/14 11:25:05;;;;;;;7.78;3.05;;;22.60;94.70;;;;;;5017195;28;20300;-48
2023/07/14 11:27:33;;;;;;;6.90;2.70;;;22.50;94.50;;;;;;5018149;28;20060;-52
2023/07/14 11:30:16;;;;;;;5.95;3.03;;;22.40;94.60;;;;;;5017552;28;20033;-50
2023/07/14 11:33:14;;;;;;;5.13;2.78;;;22.20;94.60;;;;;;4999153;28;20057;-49
2023/07/14 11:36:10;;;;;;;6.03;2.50;;;22.10;94.60;;;;;;5017101;28;20049;-51
2023/07/14 11:39:11;;;;;;;6.85;3.20;;;22.00;94.60;;;;;;4995325;28;20258;-52
2023/07/14 11:41:38;;;;;;;4.38;2.92;;;22.10;94.80;;;;;;4992897;28;20061;-52
2023/07/14 11:44:10;;;;;;;6.95;3.30;;;22.20;94.80;;;;;;4998801;28;20137;-52
2023/07/14 11:46:36;;;;;;;7.50;3.35;;;22.40;94.30;;;;;;4999154;28;20038;-50
2023/07/14 11:49:05;;;;;;;7.75;3.13;;;22.50;94.30;;;;;;4998659;28;20215;-53
2023/07/14 11:51:52;;;;;;;4.90;2.40;;;22.40;94.30;;;;;;4998869;28;20315;-50
2023/07/14 11:54:41;;;;;;;4.32;2.53;;;22.60;94.50;;;;;;4998414;28;20054;-50
2023/07/14 11:57:16;;;;;;;5.30;2.55;;;22.70;93.60;;;;;;4999221;28;20056;-51
2023/07/14 11:59:57;;;;;;;5.85;2.67;;;22.60;93.20;;;;;;4996675;28;20667;-52
2023/07/14 12:02:35;;;;;;;5.65;3.22;;;22.40;93.70;;;;;;4998582;28;20390;-53
2023/07/14 12:05:23;;;;;;;5.13;2.88;;;22.10;94.30;;;;;;4997988;28;20422;-51
2023/07/14 12:08:04;;;;;;;6.50;3.40;;;22.10;94.40;;;;;;4999136;28;20042;-49
2023/07/14 12:10:39;;;;;;;7.28;3.33;;;22.10;94.40;;;;;;5007145;28;20045;-50
2023/07/14 12:13:24;;;;;;;6.82;3.40;;;22.20;94.30;;;;;;5001000;28;20389;-51
2023/07/14 12:15:55;;;;;;;8.05;3.70;;;22.60;94.50;;;;;;5017973;28;20558;-51
2023/07/14 12:18:58;;;;;;;7.00;3.60;;;22.90;93.70;;;;;;5018051;28;20041;-50
2023/07/14 12:21:38;;;;;;;5.78;3.20;;;23.20;93.40;;;;;;5016837;28;20543;-53
2023/07/14 12:24:10;;;;;;;4.95;3.10;;;23.50;93.30;;;;;;5017351;28;20263;-50
2023/07/14 12:26:43;;;;;;;7.50;3.22;;;23.90;92.50;;;;;;5019990;28;20088;-52
2023/07/14 12:29:14;;;;;;;7.38;3.13;;;24.00;91.70;;;;;;5004091;28;20344;-52
2023/07/14 12:31:40;;;;;;;3.75;2.28;;;24.00;91.70;;;;;;5009048;28;20249;-51
2023/07/14 12:34:14;;;;;;;4.90;2.90;;;24.00;90.70;;;;;;5022295;28;20120;-52
2023/07/14 12:36:42;;;;;;;5.28;2.67;;;24.00;90.50;;;;;;5021569;28;20420;-50
2023/07/14 12:39:08;;;;;;;4.40;2.67;;;23.70;90.70;;;;;;5021202;28;20045;-50
2023/07/14 12:41:37;;;;;;;5.10;2.83;;;23.40;91.40;;;;;;5021593;28;20304;-51
2023/07/14 12:44:03;;;;;;;8.27;3.20;;;23.10;92.10;;;;;;5021171;28;20041;-53
2023/07/14 12:46:35;;;;;;;4.97;2.80;;;23.00;92.70;;;;;;5020893;28;20045;-53
2023/07/14 12:49:32;;;;;;;4.88;3.00;;;23.20;92.70;;;;;;5022458;28;20042;-53
2023/07/14 12:52:03;;;;;;;5.32;2.65;;;23.50;91.60;;;;;;5015165;28;20049;-52
2023/07/14 12:54:29;;;;;;;5.15;3.05;;;23.50;91.60;;;;;;5020994;28;20045;-51